Gustavus, Ohio
Current Conditions -  °F | °C
As of 9:51 AM on Friday 31 Oct 2014 (Local Time) from KYNG Reporting Station
Overcast Overcast  
Wind Chill: 42°   Ceiling: 4500
Heat Index: 44°   Visibility: 10mi
Dew Point: 39°   Wind: 5mph
Humidity: 82%   Direction: 200°SSW
Pressure: 29.93"   Gusts: NA
Location:  41.4314°N, 80.6629°W
Report Text: KYNG 311351Z 20004KT 10SM FEW030 BKN045 OVC060 07/04 A2993 RMK AO2 RAE16 SLP141 P0000 T00670039 $
Loading
Personal Weather Stations






























Interactive Weather Map
Tropical Storm Tracking
New forecast layout! Learn more

10-Day Weather Forecast

Advertisements
Track Severe Weather on mobile